Latest Coastal Weather Observations for Lucinda

IDQ60701

Issued at 4:15 am EST Wednesday 1 October 2014 (issued every 10 minutes, with the page automatically refreshed every 10 minutes)

About coastal observations | Map of coastal stations | Coastal observations for QLD | Marine services | Other Formats
Station Details ID: 032141 Name: LUCINDA POINT Lat: -18.52 Lon: 146.39 Height: 10.0 m
Data from the previous 72 hours. | See also: Recent months for locations in Queensland
Date/Time
EST
Temp

°C
Wind Pressure Rain
since 9am
mm
Weather Cloud Vis
km
Sea
Height
m
Swell
Dir
 
Speed
knots
Gust
knots
hPa Trend Height
m
Period
s
Dir
01/04:00am 23.1 SE 5 8 1016.5 - 0.0 - - - - - - -
01/03:30am 23.2 ESE 6 9 1016.4 - 0.0 - - - - - - -
01/03:00am 23.1 ESE 6 10 1016.4 - 0.0 - - - - - - -
01/02:30am 23.2 ESE 8 13 1016.5 - 0.0 - - - - - - -
01/02:00am 23.1 SE 6 9 1016.8 - 0.0 - - - - - - -
01/01:30am 23.0 ESE 7 11 1016.8 - 0.0 - - - - - - -
01/01:00am 22.9 ESE 6 9 1017.1 - 0.0 - - - - - - -
01/12:30am 23.1 ESE 8 13 1017.6 - 0.0 - - - - - - -
01/12:00am 23.1 SE 6 9 1017.9 - 0.0 - - - - - - -
 
Date/Time
EST
Temp

°C
Wind Pressure Rain
since 9am
mm
Weather Cloud Vis
km
Sea
Height
m
Swell
Dir
 
Speed
knots
Gust
knots
hPa Trend Height
m
Period
s
Dir
30/11:30pm 23.2 ESE 6 11 1018.0 - 0.0 - - - - - - -
30/11:00pm 23.2 ESE 7 11 1018.3 - 0.0 - - - - - - -
30/10:30pm 23.2 SE 7 11 1018.4 - 0.0 - - - - - - -
30/10:00pm 23.4 E 7 11 1018.5 - 0.0 - - - - - - -
30/09:30pm 23.3 ESE 7 9 1018.4 - 0.0 - - - - - - -
30/09:00pm 23.3 ESE 7 10 1018.3 - 0.0 - - - - - - -
30/08:30pm 23.2 ESE 7 11 1018.1 - 0.0 - - - - - - -
30/08:00pm 23.2 ESE 7 10 1017.8 - 0.0 - - - - - - -
30/07:30pm 23.3 E 7 11 1017.5 - 0.0 - - - - - - -
30/07:00pm 23.3 E 8 10 1017.2 - 0.0 - - - - - - -
30/06:30pm 23.3 E 9 11 1016.9 - 0.0 - - - - - - -
30/06:00pm 23.6 E 9 13 1016.7 - 0.0 - - - - - - -
30/05:30pm 23.5 E 9 12 1016.5 - 0.0 - - - - - - -
30/05:00pm 24.4 ESE 9 13 1016.3 - 0.0 - - - - - - -
30/04:30pm 25.0 ESE 8 12 1016.1 - 0.0 - - - - - - -
30/04:00pm 23.9 ESE 8 13 1016.0 - 0.0 - - - - - - -
30/03:30pm 24.4 SE 8 11 1015.8 - 0.0 - - - - - - -
30/03:00pm 25.1 SE 7 11 1015.9 - 0.0 - - - - - - -
30/02:30pm 25.1 SE 6 9 1016.1 - 0.0 - - - - - - -
30/02:00pm 25.1 ESE 7 11 1016.4 - 0.0 - - - - - - -
30/01:30pm 24.9 ESE 6 11 1016.7 - 0.0 - - - - - - -
30/01:00pm 25.5 SE 6 9 1017.2 - 0.0 - - - - - - -
30/12:30pm 24.9 SE 7 10 1017.6 - 0.0 - - - - - - -
30/12:00pm 25.4 SSE 6 10 1018.3 - 0.0 - - - - - - -
30/11:30am 24.9 ESE 7 9 1018.9 - 0.0 - - - - - - -
30/11:00am 25.0 SE 7 11 1019.3 - 0.0 - - - - - - -
30/10:30am 25.0 SSE 6 11 1019.5 - 0.0 - - - - - - -
30/10:00am 24.9 SE 7 11 1019.7 - 0.0 - - - - - - -
30/09:30am 23.8 ESE 9 14 1020.0 - 0.0 - - - - - - -
30/09:00am 24.4 ESE 7 11 1019.9 - 0.0 - - - - - - -
30/08:30am 24.0 SE 8 13 1019.7 - 0.0 - - - - - - -
30/08:00am 23.6 SSE 8 13 1019.5 - 0.0 - - - - - - -
30/07:30am 23.1 SE 10 15 1019.2 - 0.0 - - - - - - -
30/07:00am 23.1 SE 9 16 1018.8 - 0.0 - - - - - - -
30/06:30am 22.9 SE 9 15 1018.5 - 0.0 - - - - - - -
30/06:00am 22.6 ESE 9 15 1018.1 - 0.0 - - - - - - -
30/05:30am 22.7 SE 11 19 1017.8 - 0.0 - - - - - - -
30/05:00am 22.8 ESE 11 18 1017.4 - 0.0 - - - - - - -
30/04:30am 22.8 SSE 10 18 1017.0 - 0.0 - - - - - - -
30/04:00am 22.9 ESE 11 20 1016.7 - 0.0 - - - - - - -
30/03:30am 23.0 ESE 12 19 1016.6 - 0.0 - - - - - - -
30/03:00am 23.1 SE 12 19 1016.6 - 0.0 - - - - - - -
30/02:30am 23.1 ESE 12 19 1016.6 - 0.0 - - - - - - -
30/02:00am 23.2 SE 13 18 1016.7 - 0.0 - - - - - - -
30/01:30am 23.2 ESE 17 23 1016.9 - 0.0 - - - - - - -
30/01:00am 23.3 ESE 13 22 1017.0 - 0.0 - - - - - - -
30/12:30am 23.4 E 9 16 1017.4 - 0.0 - - - - - - -
30/12:00am 23.5 SE 10 16 1017.7 - 0.0 - - - - - - -
 
Date/Time
EST
Temp

°C
Wind Pressure Rain
since 9am
mm
Weather Cloud Vis
km
Sea
Height
m
Swell
Dir
 
Speed
knots
Gust
knots
hPa Trend Height
m
Period
s
Dir
29/11:30pm 23.6 ESE 11 18 1017.9 - 0.0 - - - - - - -
29/11:00pm 23.5 SE 10 15 1018.1 - 0.0 - - - - - - -
29/10:30pm 23.6 ESE 9 14 1018.0 - 0.0 - - - - - - -
29/10:00pm 23.6 ESE 9 14 1017.9 - 0.0 - - - - - - -
29/09:30pm 23.5 ESE 10 15 1018.0 - 0.0 - - - - - - -
29/09:00pm 23.5 ENE 10 15 1017.9 - 0.0 - - - - - - -
29/08:30pm 23.5 ESE 11 16 1017.7 - 0.0 - - - - - - -
29/08:00pm 23.6 SE 10 16 1017.5 - 0.0 - - - - - - -
29/07:30pm 23.4 ESE 8 13 1017.1 - 0.0 - - - - - - -
29/07:00pm 23.3 ESE 14 20 1016.6 - 0.0 - - - - - - -
29/06:30pm 23.7 ESE 11 16 1016.6 - 0.0 - - - - - - -
29/06:00pm 23.9 ESE 10 15 1016.2 - 0.0 - - - - - - -
29/05:30pm 24.3 ESE 8 12 1015.9 - 0.0 - - - - - - -
29/05:00pm 25.0 SE 7 11 1016.0 - 0.0 - - - - - - -
29/04:30pm 24.9 SE 7 11 1015.9 - 0.0 - - - - - - -
29/04:00pm 25.5 SE 7 11 1015.8 - 0.0 - - - - - - -
29/03:30pm 25.6 ESE 8 12 1015.8 - 0.0 - - - - - - -
29/03:00pm 25.2 ESE 9 14 1016.0 - 0.0 - - - - - - -
29/02:30pm 25.3 SE 9 15 1016.0 - 0.0 - - - - - - -
29/02:00pm 25.3 ESE 10 14 1016.2 - 0.0 - - - - - - -
29/01:30pm 24.9 ESE 9 12 1016.6 - 0.0 - - - - - - -
29/01:00pm 25.4 SE 8 11 1017.1 - 0.0 - - - - - - -
29/12:30pm 25.3 ESE 8 12 1017.6 - 0.0 - - - - - - -
29/12:00pm 25.3 ESE 8 13 1018.0 - 0.0 - - - - - - -
29/11:30am 25.2 ESE 8 14 1018.3 - 0.0 - - - - - - -
29/11:00am 25.0 SE 9 15 1018.6 - 0.0 - - - - - - -
29/10:30am 25.2 SE 9 15 1018.8 - 0.0 - - - - - - -
29/10:00am 24.9 ESE 11 17 1018.8 - 0.0 - - - - - - -
29/09:30am 25.0 ESE 9 16 1018.9 - 0.0 - - - - - - -
29/09:00am 24.9 SE 9 14 1018.8 - 0.0 - - - - - - -
29/08:30am 24.8 SE 10 16 1018.6 - 0.0 - - - - - - -
29/08:00am 25.0 SE 7 11 1018.5 - 0.0 - - - - - - -
29/07:30am 24.3 S 5 9 1018.2 - 0.0 - - - - - - -
29/07:00am 24.2 SE 7 12 1017.8 - 0.0 - - - - - - -
29/06:30am 23.6 SE 7 11 1017.3 - 0.0 - - - - - - -
29/06:00am 23.3 SE 7 10 1017.0 - 0.0 - - - - - - -
29/05:30am 23.2 ESE 7 12 1016.6 - 0.0 - - - - - - -
29/05:00am 23.4 SE 7 11 1016.3 - 0.0 - - - - - - -
29/04:30am 23.4 SE 8 12 1015.9 - 0.0 - - - - - - -
29/04:00am 23.3 ESE 10 15 1015.8 - 0.0 - - - - - - -
29/03:30am 23.4 ESE 11 14 1015.8 - 0.0 - - - - - - -
29/03:00am 23.4 E 9 12 1015.7 - 0.0 - - - - - - -
29/02:30am 23.4 E 10 15 1016.0 - 0.0 - - - - - - -
29/02:00am 23.4 ESE 11 15 1016.3 - 0.0 - - - - - - -
29/01:30am 23.5 ESE 10 15 1016.5 - 0.0 - - - - - - -
29/01:00am 23.6 ESE 9 14 1016.9 - 0.0 - - - - - - -
29/12:30am 23.7 E 10 13 1017.0 - 0.0 - - - - - - -
29/12:00am 23.8 E 9 12 1017.1 - 0.0 - - - - - - -
 
Date/Time
EST
Temp

°C
Wind Pressure Rain
since 9am
mm
Weather Cloud Vis
km
Sea
Height
m
Swell
Dir
 
Speed
knots
Gust
knots
hPa Trend Height
m
Period
s
Dir
28/11:30pm 23.8 ENE 11 13 1017.4 - 0.0 - - - - - - -
28/11:00pm 23.9 ENE 11 13 1017.6 - 0.0 - - - - - - -
28/10:30pm 23.9 ENE 11 15 1017.6 - 0.0 - - - - - - -
28/10:00pm 24.0 E 11 14 1017.7 - 0.0 - - - - - - -
28/09:30pm 24.0 E 9 14 1017.7 - 0.0 - - - - - - -
28/09:00pm 24.1 E 9 13 1017.7 - 0.0 - - - - - - -
28/08:30pm 24.1 E 8 13 1017.7 - 0.0 - - - - - - -
28/08:00pm 24.1 E 8 11 1017.3 - 0.0 - - - - - - -
28/07:30pm 24.1 E 8 10 1017.0 - 0.0 - - - - - - -
28/07:00pm 24.1 SE 5 8 1016.8 - 0.0 - - - - - - -
28/06:30pm 24.2 E 5 7 1016.6 - 0.0 - - - - - - -
28/06:00pm 24.6 E 5 8 1016.2 - 0.0 - - - - - - -
28/05:30pm 25.0 E 5 6 1015.9 - 0.0 - - - - - - -
28/05:00pm 24.9 E 7 8 1015.7 - 0.0 - - - - - - -
28/04:30pm 24.9 NE 7 9 1015.5 - 0.0 - - - - - - -
28/04:00pm 24.7 NE 8 9 1015.4 - 0.0 - - - - - - -
28/03:30pm 25.1 ENE 7 9 1015.4 - 0.0 - - - - - - -
28/03:00pm 25.2 ENE 6 8 1015.5 - 0.0 - - - - - - -
28/02:30pm 24.8 NE 7 8 1015.7 - 0.0 - - - - - - -
28/02:00pm 25.2 NE 6 8 1015.9 - 0.0 - - - - - - -
28/01:30pm 24.7 ENE 7 9 1016.2 - 0.0 - - - - - - -
28/01:00pm 24.9 E 8 10 1016.4 - 0.0 - - - - - - -
28/12:30pm 25.2 E 8 11 1016.7 - 0.0 - - - - - - -
28/12:00pm 25.3 E 8 11 1017.2 - 0.0 - - - - - - -
28/11:30am 25.4 ENE 9 12 1017.6 - 0.0 - - - - - - -
28/11:00am 25.2 ENE 8 10 1017.9 - 0.0 - - - - - - -
28/10:30am 25.3 E 7 9 1018.3 - 0.0 - - - - - - -
28/10:00am 25.2 E 9 11 1018.5 - 0.0 - - - - - - -
28/09:30am 25.1 E 9 11 1018.5 - 0.0 - - - - - - -
28/09:00am 25.1 ESE 11 14 1018.5 - 0.0 - - - - - - -
28/08:30am 24.9 E 11 14 1018.4 - 0.0 - - - - - - -
28/08:00am 24.5 ESE 11 16 1018.2 - 0.0 - - - - - - -
28/07:30am 24.8 E 9 14 1017.8 - 0.0 - - - - - - -
28/07:00am 24.2 E 9 12 1017.5 - 0.0 - - - - - - -
28/06:30am 24.1 E 9 11 1017.0 - 0.0 - - - - - - -
28/06:00am 24.1 E 10 11 1016.6 - 0.0 - - - - - - -
28/05:30am 23.9 ENE 10 13 1016.2 - 0.0 - - - - - - -
28/05:00am 24.0 ENE 10 14 1015.8 - 0.0 - - - - - - -
28/04:30am 24.2 NE 11 13 1015.5 - 0.0 - - - - - - -

Other Formats:

Comma delimited format used in spreadsheet applications
http://www.bom.gov.au/fwo/IDQ60701/IDQ60701.94295.axf

JavaScript Object Notation format (JSON) in row-major order
http://www.bom.gov.au/fwo/IDQ60701/IDQ60701.94295.json